VIDP/DEL METAR and TAF weather

Enter ICAO airport designator
Station Type Date Time Source
VIDP METAR 2022/06/28 08:00 UTC NOAA

VIDP 280800Z 19004KT 110V230 4000 HZ SCT035 BKN100 40/21 Q0998 NOSIG


Station Type Date Time Source
VIDP Decoded METAR 2022/06/28 08:00 UTC NOAA

New Delhi / Palam, India (VIDP) 28-34N 077-07E 233M
Jun 28, 2022 - 04:00 AM EDT / 2022.06.28 0800 UTC
Wind: from the S (190 degrees) at 5 MPH (4 KT) (direction variable):0
Visibility: 2 mile(s):0
Sky conditions: mostly cloudy
Weather: haze
Temperature: 104 F (40 C)
Heat index: 112.1 F (44.5 C):1
Dew Point: 69 F (21 C)
Relative Humidity: 33%
Pressure (altimeter): 29.47 in. Hg (0998 hPa)
ob: VIDP 280800Z 19004KT 110V230 4000 HZ SCT035 BKN100 40/21 Q0998 NOSIG
cycle: 8

Station Type Date Time Source
VIDP TAF 2022/06/28 06:06 UTC NOAA

TAF VIDP 280500Z 2806/2912 16006KT 3500 HZ FEW035 SCT100
BECMG 2808/2810 25008KT 5000 HZ SCT035 BKN100
TEMPO 2812/2814 FEW035TCU
BECMG 2820/2822 25008G18KT 3000 HZ -RA
BECMG 2906/2908 32008KT 5000 HZ FEW035 SCT100

Example: see airport list